Decoded Metar for SAWG (RIO GALLEGOS in ARGENTINA) (IATA:RGL) | Meteo·Mobile Aviation Weather
aviador You're here:

SAWG Decoded Metar

RIO GALLEGOS in ARGENTINA
Report Time2018-11-21 18:00:00
UTC Time2018-11-21 19:01:54
Flight Rules vfr VFR
Wind250° at 15 kt
W.Decomp.*RWY 25: 14.7 kt HW 3.1 kt LCW
W.Rank250° ranks 2
Current wind is below 250° avg. (15.5)
Visibility9999 m
Phenomena:Vicinity showers
Clouds:Scattered 030 Hf
Scattered CB 035 Hf
Expected CloudBase > 9,600 ft AGL from Temp-Dew spread
CeilingNone
Temp13°C (ISA -2)
Dew Point-11°C (18% RH)
AAT4.5°C
QNH0991 hPa
Density Alt630 ft
Elevation62 ft
Report Wrong Elevation
Raw Report
SAWG 211800Z 25015KT 9999 VCSH SCT030 SCT035CB 13/M11 Q0991=

Extra information for SAWG:More info

Metar Taf Metar & Taf Last 4 Metars F.Rules Stats Wind Profile Meteogram Temp Stats Airport Information Weather charts Add Link Nearby VenuesMetar ALERT Operation Metar Decoded Social comments